TimeEST,TemperatureF,Dew PointF,Humidity,Sea Level PressureIn,VisibilityMPH,Wind Direction,Wind SpeedMPH,Gust SpeedMPH,PrecipitationIn,Events,Conditions,WindDirDegrees,DateUTC
12:01 AM,12.2,10.4,92,30.11,2.5,WSW,9.2,-,0.00,Snow,Light Snow,250,2013-02-17 05:01:00
12:05 AM,12.2,8.6,85,30.11,3.0,WSW,9.2,-,0.00,Snow,Light Snow,240,2013-02-17 05:05:00
12:14 AM,12.2,8.6,85,30.11,6.0,WSW,6.9,-,0.00,Snow,Light Snow,240,2013-02-17 05:14:00
12:54 AM,12.0,8.1,84,30.16,5.0,SW,5.8,-,0.00,,Partly Cloudy,230,2013-02-17 05:54:00
1:36 AM,15.8,12.2,86,30.11,2.0,WSW,3.5,-,0.00,Snow,Light Snow,240,2013-02-17 06:36:00
1:44 AM,15.8,12.2,86,30.11,1.2,Calm,Calm,-,0.00,Snow,Light Snow,0,2013-02-17 06:44:00
1:54 AM,15.1,10.9,84,30.16,1.0,Calm,Calm,-,0.00,Snow,Light Snow,0,2013-02-17 06:54:00
2:09 AM,15.8,12.2,86,30.12,0.8,Calm,Calm,-,0.01,Snow,Light Snow,0,2013-02-17 07:09:00
2:16 AM,15.8,12.2,86,30.12,1.5,Calm,Calm,-,0.01,Snow,Light Snow,0,2013-02-17 07:16:00
2:39 AM,15.8,12.2,86,30.12,1.8,Calm,Calm,-,0.02,Snow,Light Snow,0,2013-02-17 07:39:00
2:54 AM,16.0,12.0,84,30.16,2.5,Calm,Calm,-,0.02,Snow,Light Snow,0,2013-02-17 07:54:00
3:14 AM,15.8,12.2,86,30.12,5.0,Calm,Calm,-,0.00,Snow,Light Snow,0,2013-02-17 08:14:00
3:23 AM,15.8,12.2,86,30.12,4.0,WSW,3.5,-,0.00,Snow,Light Snow,240,2013-02-17 08:23:00
3:54 AM,12.0,9.0,88,30.17,7.0,Calm,Calm,-,0.00,,Scattered Clouds,0,2013-02-17 08:54:00
4:54 AM,12.0,8.1,84,30.17,10.0,Calm,Calm,-,N/A,,Overcast,0,2013-02-17 09:54:00
5:12 AM,12.2,8.6,85,30.13,10.0,Calm,Calm,-,N/A,,Overcast,0,2013-02-17 10:12:00
5:21 AM,12.2,8.6,85,30.14,10.0,Calm,Calm,-,N/A,,Overcast,0,2013-02-17 10:21:00
5:54 AM,14.0,10.0,84,30.19,8.0,Calm,Calm,-,0.00,Snow,Light Snow,0,2013-02-17 10:54:00
6:54 AM,16.0,12.0,84,30.20,10.0,SSW,4.6,-,0.00,,Overcast,200,2013-02-17 11:54:00
7:54 AM,16.0,12.9,88,30.22,10.0,Calm,Calm,-,N/A,,Overcast,0,2013-02-17 12:54:00
8:54 AM,16.0,12.9,88,30.23,10.0,South,4.6,-,N/A,,Overcast,180,2013-02-17 13:54:00
9:54 AM,17.1,12.9,84,30.25,2.0,South,3.5,-,0.01,Snow,Light Snow,180,2013-02-17 14:54:00
10:08 AM,17.6,12.2,79,30.20,1.5,South,4.6,-,0.00,Snow,Light Snow,180,2013-02-17 15:08:00
10:34 AM,17.6,12.2,79,30.20,1.5,South,3.5,-,0.00,Snow,Light Snow,190,2013-02-17 15:34:00
10:38 AM,17.6,12.2,79,30.20,4.0,South,3.5,-,0.00,Snow,Light Snow,190,2013-02-17 15:38:00
10:54 AM,18.0,12.9,81,30.25,4.0,South,5.8,-,0.00,Snow,Light Snow,180,2013-02-17 15:54:00
11:54 AM,21.0,12.9,71,30.25,10.0,South,3.5,-,0.00,,Partly Cloudy,170,2013-02-17 16:54:00
12:54 PM,24.1,12.0,60,30.24,10.0,WSW,6.9,-,N/A,,Clear,250,2013-02-17 17:54:00
1:54 PM,25.0,9.0,51,30.22,10.0,South,9.2,-,N/A,,Partly Cloudy,180,2013-02-17 18:54:00
2:54 PM,26.1,9.0,49,30.21,10.0,South,4.6,-,0.00,,Clear,180,2013-02-17 19:54:00
3:54 PM,28.0,7.0,41,30.20,10.0,WSW,8.1,-,N/A,,Clear,250,2013-02-17 20:54:00
4:54 PM,28.0,7.0,41,30.19,10.0,SW,10.4,-,N/A,,Clear,230,2013-02-17 21:54:00
5:54 PM,27.0,7.0,43,30.18,10.0,SSW,8.1,-,N/A,,Clear,200,2013-02-17 22:54:00
6:54 PM,26.6,6.8,43,30.13,10.0,South,5.8,-,N/A,,Clear,170,2013-02-17 23:54:00
7:54 PM,24.1,8.1,51,30.17,10.0,South,6.9,-,N/A,,Clear,180,2013-02-18 00:54:00
8:54 PM,24.1,10.0,55,30.17,10.0,South,6.9,-,N/A,,Clear,180,2013-02-18 01:54:00
9:05 PM,24.8,10.4,54,30.13,10.0,SSE,6.9,-,N/A,,Clear,150,2013-02-18 02:05:00
9:54 PM,24.1,12.0,60,30.17,10.0,SSE,8.1,-,N/A,,Clear,150,2013-02-18 02:54:00
10:54 PM,25.0,12.9,60,30.15,10.0,SSE,9.2,-,N/A,,Clear,150,2013-02-18 03:54:00
11:54 PM,25.0,12.9,60,30.15,10.0,SSE,8.1,-,N/A,,Clear,150,2013-02-18 04:54:00